Time;durP1;ratioP1;P1;durP2;ratioP2;P2;SDS_P1;SDS_P2;PMS_P1;PMS_P2;Temp;Humidity;BMP_temperature;BMP_pressure;BME280_temperature;BME280_humidity;BME280_pressure;Samples;Min_cycle;Max_cycle;Signal;HPM_P1;HPM_P2
2020/12/13 00:00:13;;;;;;;33.93;27.07;;;5.90;99.90;;;;;;5067437;28;20293;-40
2020/12/13 00:02:40;;;;;;;30.93;26.40;;;5.90;99.90;;;;;;5071640;28;20660;-40
2020/12/13 00:05:07;;;;;;;33.80;26.63;;;5.90;99.90;;;;;;5071947;28;20282;-40
2020/12/13 00:07:34;;;;;;;31.53;26.00;;;5.90;99.90;;;;;;5071422;28;20282;-40
2020/12/13 00:10:02;;;;;;;35.07;27.33;;;5.90;99.90;;;;;;5070242;28;20198;-41
2020/12/13 00:12:28;;;;;;;34.77;27.67;;;5.90;99.90;;;;;;5070978;28;20248;-40
2020/12/13 00:14:55;;;;;;;33.70;27.27;;;5.90;99.90;;;;;;5070752;28;20618;-40
2020/12/13 00:17:21;;;;;;;31.48;25.35;;;6.00;99.90;;;;;;5070347;28;20203;-40
2020/12/13 00:19:48;;;;;;;36.63;26.97;;;6.00;99.90;;;;;;5070346;28;20341;-40
2020/12/13 00:22:14;;;;;;;33.03;26.70;;;6.00;99.90;;;;;;5070763;28;20221;-40
2020/12/13 00:24:41;;;;;;;34.10;26.70;;;6.00;99.90;;;;;;5072091;28;20274;-40
2020/12/13 00:27:08;;;;;;;33.10;26.27;;;6.00;99.90;;;;;;5070394;28;20203;-40
2020/12/13 00:29:34;;;;;;;35.47;28.50;;;6.00;99.90;;;;;;5071352;28;20202;-41
2020/12/13 00:32:01;;;;;;;31.00;25.37;;;6.00;99.90;;;;;;5070441;28;20242;-40
2020/12/13 00:34:27;;;;;;;33.47;26.37;;;6.00;99.90;;;;;;5071264;28;20237;-40
2020/12/13 00:36:54;;;;;;;32.87;25.10;;;6.00;99.90;;;;;;5070650;28;20709;-40
2020/12/13 00:39:21;;;;;;;32.93;27.37;;;6.00;99.90;;;;;;5069974;28;20293;-40
2020/12/13 00:41:51;;;;;;;35.73;27.23;;;6.00;99.90;;;;;;5060298;22;20215;-80
2020/12/13 00:44:20;;;;;;;33.63;27.03;;;6.10;99.90;;;;;;5038589;28;20712;-80
2020/12/13 00:46:58;;;;;;;33.50;26.40;;;6.00;99.90;;;;;;5056612;28;20198;-80
2020/12/13 00:49:29;;;;;;;33.93;26.30;;;6.20;99.90;;;;;;5039043;28;20229;-79
2020/12/13 00:52:00;;;;;;;36.00;27.37;;;6.00;99.90;;;;;;5018225;28;20196;-80
2020/12/13 00:54:39;;;;;;;37.08;27.42;;;6.00;99.90;;;;;;5034131;28;20228;-80
2020/12/13 01:00:07;;;;;;;35.87;27.43;;;6.00;99.90;;;;;;5024085;28;20878;-80
2020/12/13 01:02:34;;;;;;;30.73;25.23;;;6.10;99.90;;;;;;5035928;28;20192;-80
2020/12/13 01:05:15;;;;;;;;;;;;;;;;;;;;;
2020/12/13 01:07:45;;;;;;;34.90;27.63;;;6.00;99.90;;;;;;5033939;28;20200;-80
2020/12/13 01:10:13;;;;;;;36.00;26.60;;;6.10;99.90;;;;;;5018485;28;20220;-80
2020/12/13 01:13:01;;;;;;;37.20;26.47;;;6.00;99.90;;;;;;5019987;28;20215;-79
2020/12/13 01:15:36;;;;;;;37.63;27.53;;;6.20;99.90;;;;;;5036126;28;20216;-80
2020/12/13 01:18:07;;;;;;;36.72;27.05;;;6.00;99.90;;;;;;5032522;28;20188;-80
2020/12/13 01:20:50;;;;;;;32.17;25.60;;;6.10;99.90;;;;;;5019422;28;20217;-80
2020/12/13 01:23:17;;;;;;;33.93;26.93;;;6.00;99.90;;;;;;5018864;28;20258;-80
2020/12/13 01:25:44;;;;;;;34.77;26.67;;;6.00;99.90;;;;;;5018501;28;20196;-80
2020/12/13 01:28:13;;;;;;;36.50;27.47;;;6.00;99.90;;;;;;5031086;28;20200;-78
2020/12/13 01:30:41;;;;;;;37.03;26.63;;;6.00;99.90;;;;;;5013498;28;20222;-78
2020/12/13 01:33:07;;;;;;;35.87;26.70;;;6.00;99.90;;;;;;5034771;28;20196;-78
2020/12/13 01:35:33;;;;;;;36.87;26.33;;;6.00;99.90;;;;;;5035662;28;20231;-78
2020/12/13 01:38:00;;;;;;;34.07;26.90;;;6.00;99.90;;;;;;5033745;28;20291;-78
2020/12/13 01:40:26;;;;;;;36.70;28.48;;;6.00;99.90;;;;;;5032542;28;20227;-77
2020/12/13 01:42:54;;;;;;;30.13;24.70;;;6.00;99.90;;;;;;5033970;28;20580;-78
2020/12/13 01:45:20;;;;;;;40.83;29.33;;;6.00;99.90;;;;;;5024922;28;20195;-77
2020/12/13 01:47:50;;;;;;;39.40;27.20;;;6.00;99.90;;;;;;5016318;28;20192;-78
2020/12/13 01:50:29;;;;;;;32.47;25.20;;;6.00;99.90;;;;;;5034069;28;20236;-77
2020/12/13 01:53:13;;;;;;;34.77;26.17;;;6.00;99.90;;;;;;5014604;28;20199;-79
2020/12/13 01:55:42;;;;;;;34.23;26.40;;;6.00;99.90;;;;;;5033003;28;20692;-78
2020/12/13 01:58:13;;;;;;;29.53;24.27;;;6.00;99.90;;;;;;5030598;28;20196;-78
2020/12/13 02:00:44;;;;;;;37.78;27.33;;;6.00;99.90;;;;;;5033737;28;20273;-78
2020/12/13 02:03:13;;;;;;;34.45;26.02;;;6.00;99.90;;;;;;5016875;28;20200;-78
2020/12/13 02:05:40;;;;;;;37.73;27.83;;;6.00;99.90;;;;;;5034584;28;20198;-78
2020/12/13 02:08:07;;;;;;;37.40;29.23;;;6.00;99.90;;;;;;5033783;28;20196;-78
2020/12/13 02:10:34;;;;;;;34.70;26.57;;;6.00;99.90;;;;;;5033950;28;20266;-78
2020/12/13 02:13:01;;;;;;;32.33;25.20;;;6.00;99.90;;;;;;5033920;28;20275;-78
2020/12/13 02:15:28;;;;;;;34.20;25.85;;;6.00;99.90;;;;;;5034393;28;20224;-78
2020/12/13 02:17:55;;;;;;;34.50;25.70;;;6.00;99.90;;;;;;5034390;28;20200;-78
2020/12/13 02:20:22;;;;;;;39.40;28.67;;;6.00;99.90;;;;;;5033859;28;20719;-78
2020/12/13 02:22:50;;;;;;;31.33;25.23;;;6.00;99.90;;;;;;5033928;28;20552;-78
2020/12/13 02:25:18;;;;;;;36.80;26.10;;;6.00;99.90;;;;;;5034353;28;20218;-78
2020/12/13 02:27:45;;;;;;;34.27;26.67;;;6.00;99.90;;;;;;5033419;28;20206;-78
2020/12/13 02:30:11;;;;;;;34.30;26.60;;;6.10;99.90;;;;;;5033811;28;20224;-78
2020/12/13 02:32:38;;;;;;;33.70;24.70;;;6.10;99.90;;;;;;5016149;28;20211;-78
2020/12/13 02:35:06;;;;;;;40.85;30.08;;;6.10;99.90;;;;;;5033959;28;20224;-78
2020/12/13 02:37:36;;;;;;;35.13;26.97;;;6.00;99.90;;;;;;5033567;28;20568;-78
2020/12/13 02:40:03;;;;;;;33.60;25.60;;;6.10;99.90;;;;;;5033715;28;20606;-78
2020/12/13 02:42:34;;;;;;;38.07;27.73;;;6.00;99.90;;;;;;5033806;28;20204;-78
2020/12/13 02:45:00;;;;;;;35.65;26.73;;;6.00;99.90;;;;;;5032921;28;20207;-78
2020/12/13 02:47:27;;;;;;;36.10;26.20;;;6.10;99.90;;;;;;5033448;28;20196;-78
2020/12/13 02:49:53;;;;;;;38.60;28.02;;;6.10;99.90;;;;;;5033601;28;20715;-78
2020/12/13 02:52:19;;;;;;;35.20;23.93;;;6.10;99.90;;;;;;5029182;28;20722;-78
2020/12/13 02:54:46;;;;;;;35.50;24.98;;;6.20;99.90;;;;;;5033827;28;20192;-78
2020/12/13 02:57:13;;;;;;;39.93;27.77;;;6.20;99.90;;;;;;5033808;28;20267;-77
2020/12/13 02:59:40;;;;;;;34.80;27.50;;;6.20;99.90;;;;;;5033774;28;20207;-78
2020/12/13 03:02:06;;;;;;;39.70;28.50;;;6.20;99.90;;;;;;5033616;28;20199;-78
2020/12/13 03:04:32;;;;;;;34.73;26.30;;;6.10;99.90;;;;;;5033906;28;20684;-78
2020/12/13 03:06:59;;;;;;;35.08;25.75;;;6.10;99.90;;;;;;5033918;28;20720;-77
2020/12/13 03:09:25;;;;;;;33.58;26.17;;;6.20;99.90;;;;;;5046883;28;20278;-78
2020/12/13 03:11:52;;;;;;;36.80;26.70;;;6.10;99.90;;;;;;5058926;28;20207;-78
2020/12/13 03:14:19;;;;;;;34.42;26.23;;;6.00;99.90;;;;;;5041841;28;20192;-78
2020/12/13 03:16:46;;;;;;;36.55;26.33;;;6.00;99.90;;;;;;5058617;28;20211;-78
2020/12/13 03:19:12;;;;;;;35.75;26.60;;;6.00;99.90;;;;;;5044725;28;20256;-78
2020/12/13 03:21:39;;;;;;;43.40;30.73;;;6.10;99.90;;;;;;5037793;28;20268;-79
2020/12/13 03:24:05;;;;;;;40.77;29.23;;;6.10;99.90;;;;;;5036538;28;20185;-78
2020/12/13 03:26:33;;;;;;;39.47;28.00;;;6.20;99.90;;;;;;5015384;28;20204;-78
2020/12/13 03:28:59;;;;;;;35.90;27.30;;;6.20;99.90;;;;;;5015627;28;20192;-78
2020/12/13 03:31:26;;;;;;;37.77;26.80;;;6.20;99.90;;;;;;5015847;28;20287;-78
2020/12/13 03:33:53;;;;;;;35.07;26.30;;;6.20;99.90;;;;;;5034212;28;20208;-78
2020/12/13 03:36:19;;;;;;;41.33;28.70;;;6.20;99.90;;;;;;5034380;28;20224;-78
2020/12/13 03:38:46;;;;;;;39.17;27.30;;;6.20;99.90;;;;;;5016540;28;20680;-78
2020/12/13 03:41:12;;;;;;;37.20;26.20;;;6.10;99.90;;;;;;5016717;28;20224;-78
2020/12/13 03:43:39;;;;;;;30.70;23.75;;;6.10;99.90;;;;;;5034481;28;20206;-78
2020/12/13 03:46:05;;;;;;;37.67;27.97;;;6.10;99.90;;;;;;5016277;28;20787;-77
2020/12/13 03:48:32;;;;;;;34.17;26.67;;;6.10;99.90;;;;;;5033087;28;20199;-77
2020/12/13 03:50:59;;;;;;;33.15;25.08;;;6.10;99.90;;;;;;5015839;28;20790;-77
2020/12/13 03:53:25;;;;;;;32.50;23.90;;;6.10;99.90;;;;;;5032855;28;20231;-78
2020/12/13 03:55:51;;;;;;;34.40;25.58;;;6.10;99.90;;;;;;5032709;28;20220;-79
2020/12/13 03:58:18;;;;;;;36.08;26.80;;;6.20;99.90;;;;;;5034492;28;20734;-78
2020/12/13 04:00:44;;;;;;;33.07;24.77;;;6.20;99.90;;;;;;5031990;28;20226;-77
2020/12/13 04:03:12;;;;;;;34.83;26.60;;;6.20;99.90;;;;;;5032657;28;20550;-78
2020/12/13 04:05:39;;;;;;;34.70;25.37;;;6.40;99.90;;;;;;5033129;28;20203;-78
2020/12/13 04:08:06;;;;;;;40.80;26.83;;;6.20;99.90;;;;;;5032625;28;20640;-78
2020/12/13 04:10:32;;;;;;;39.60;25.73;;;6.20;99.90;;;;;;5033887;28;20207;-78
2020/12/13 04:12:59;;;;;;;37.57;26.40;;;6.30;99.90;;;;;;5033385;28;20651;-78
2020/12/13 04:15:26;;;;;;;38.97;27.47;;;6.30;99.90;;;;;;5032687;28;20220;-78
2020/12/13 04:17:52;;;;;;;35.58;25.83;;;6.30;99.90;;;;;;5015257;28;20196;-78
2020/12/13 04:20:19;;;;;;;36.55;26.65;;;6.30;99.90;;;;;;5032397;28;20223;-77
2020/12/13 04:22:46;;;;;;;37.67;27.20;;;6.20;99.90;;;;;;5031646;28;20664;-77
2020/12/13 04:25:12;;;;;;;37.33;26.67;;;6.20;99.90;;;;;;5031813;28;20911;-78
2020/12/13 04:27:39;;;;;;;36.70;27.27;;;6.20;99.90;;;;;;5031689;28;20291;-78
2020/12/13 04:30:06;;;;;;;36.55;28.05;;;6.30;99.90;;;;;;5014389;28;20307;-78
2020/12/13 04:32:32;;;;;;;38.43;27.13;;;6.20;99.90;;;;;;5014569;28;20196;-78
2020/12/13 04:34:59;;;;;;;36.73;26.57;;;6.20;99.90;;;;;;5013997;28;20295;-78
2020/12/13 04:37:25;;;;;;;39.70;27.93;;;6.20;99.90;;;;;;5013673;28;20211;-78
2020/12/13 04:39:53;;;;;;;37.00;27.30;;;6.30;99.90;;;;;;5031925;28;20614;-78
2020/12/13 04:42:20;;;;;;;34.33;25.60;;;6.30;99.90;;;;;;5032432;28;20330;-78
2020/12/13 04:44:46;;;;;;;38.72;27.75;;;6.20;99.90;;;;;;5031644;28;20276;-78
2020/12/13 04:47:16;;;;;;;33.80;25.05;;;6.20;99.90;;;;;;5013877;28;20271;-78
2020/12/13 04:49:45;;;;;;;34.97;27.83;;;6.20;99.90;;;;;;5031665;28;20278;-78
2020/12/13 04:52:12;;;;;;;37.10;26.77;;;6.30;99.90;;;;;;5031874;28;20196;-78
2020/12/13 04:54:48;;;;;;;38.93;29.40;;;6.20;99.90;;;;;;5031874;28;20203;-78
2020/12/13 04:57:16;;;;;;;42.33;30.58;;;6.30;99.90;;;;;;5013658;28;20310;-78
2020/12/13 04:59:42;;;;;;;35.50;26.03;;;6.40;99.90;;;;;;5013924;28;20196;-78
2020/12/13 05:02:12;;;;;;;37.17;28.17;;;6.40;99.90;;;;;;5030401;28;20317;-78
2020/12/13 05:04:38;;;;;;;42.03;28.67;;;6.30;99.90;;;;;;5031202;28;20200;-77
2020/12/13 05:07:04;;;;;;;41.03;28.63;;;6.30;99.90;;;;;;5031518;28;20196;-77
2020/12/13 05:09:31;;;;;;;40.13;28.65;;;6.30;99.90;;;;;;5052939;28;20195;-76
2020/12/13 05:11:58;;;;;;;40.75;28.25;;;6.30;99.90;;;;;;5043687;28;20229;-78
2020/12/13 05:14:25;;;;;;;40.37;29.47;;;6.30;99.90;;;;;;5061438;28;20211;-78
2020/12/13 05:17:06;;;;;;;38.67;27.33;;;6.30;99.90;;;;;;5060637;28;20208;-79
2020/12/13 05:19:33;;;;;;;34.08;26.33;;;6.30;99.90;;;;;;5061188;28;20199;-79
2020/12/13 05:22:01;;;;;;;34.57;27.53;;;6.30;99.90;;;;;;5043573;28;20238;-79
2020/12/13 05:24:29;;;;;;;37.40;29.05;;;6.30;99.90;;;;;;5059893;28;20202;-79
2020/12/13 05:27:00;;;;;;;40.63;27.67;;;6.30;99.90;;;;;;5041510;28;20184;-78
2020/12/13 05:29:30;;;;;;;35.40;26.97;;;6.30;99.90;;;;;;5043293;28;20563;-78
2020/12/13 05:32:09;;;;;;;40.65;26.65;;;6.30;99.90;;;;;;5034939;28;20632;-78
2020/12/13 05:34:38;;;;;;;36.40;25.60;;;6.30;99.90;;;;;;5035055;28;20271;-78
2020/12/13 05:37:07;;;;;;;40.33;27.80;;;6.30;99.90;;;;;;5033528;28;20261;-78
2020/12/13 05:39:36;;;;;;;39.03;27.73;;;6.30;99.90;;;;;;5000141;28;20204;-78
2020/12/13 05:42:03;;;;;;;40.17;28.08;;;6.30;99.90;;;;;;4999541;28;20211;-78
2020/12/13 05:45:06;;;;;;;37.43;28.07;;;6.30;99.90;;;;;;5033905;28;20196;-77
2020/12/13 05:50:33;;;;;;;42.13;27.27;;;6.20;99.90;;;;;;5033051;28;20226;-78
2020/12/13 05:53:01;;;;;;;38.97;28.93;;;6.30;99.90;;;;;;5033284;28;20204;-78
2020/12/13 05:55:28;;;;;;;34.85;27.55;;;6.30;99.90;;;;;;5033109;28;20228;-78
2020/12/13 05:57:54;;;;;;;43.10;30.60;;;6.30;99.90;;;;;;5013805;28;20802;-78
2020/12/13 06:00:22;;;;;;;35.87;26.97;;;6.30;99.90;;;;;;5032325;28;20216;-77
2020/12/13 06:02:50;;;;;;;39.87;27.27;;;6.20;99.90;;;;;;5033114;28;20222;-78
2020/12/13 06:05:19;;;;;;;39.33;28.67;;;6.30;99.90;;;;;;5033573;28;20246;-79
2020/12/13 06:07:49;;;;;;;38.10;26.20;;;6.30;99.90;;;;;;5015991;28;20196;-78
2020/12/13 06:10:24;;;;;;;39.38;28.10;;;6.30;99.90;;;;;;5015370;28;20631;-78
2020/12/13 06:12:59;;;;;;;37.57;26.80;;;6.20;99.90;;;;;;5015712;28;20219;-78
2020/12/13 06:15:28;;;;;;;34.33;26.37;;;6.20;99.90;;;;;;5032646;28;20215;-78
2020/12/13 06:17:54;;;;;;;39.57;27.13;;;6.20;99.90;;;;;;5032187;28;20196;-78
2020/12/13 06:20:22;;;;;;;37.13;28.53;;;6.20;99.90;;;;;;5031992;28;20219;-77
2020/12/13 06:22:50;;;;;;;41.13;30.50;;;6.20;99.90;;;;;;5033412;28;20299;-78
2020/12/13 06:25:17;;;;;;;39.30;25.80;;;6.20;99.90;;;;;;5033280;28;20206;-78
2020/12/13 06:27:44;;;;;;;36.53;27.03;;;6.20;99.90;;;;;;4998570;28;20204;-77
2020/12/13 06:30:10;;;;;;;41.15;27.92;;;6.20;99.90;;;;;;5032312;28;20216;-78
2020/12/13 06:32:42;;;;;;;35.47;27.50;;;6.30;99.90;;;;;;5033154;28;20211;-78
2020/12/13 06:35:08;;;;;;;33.73;23.87;;;6.30;99.90;;;;;;5032854;28;20196;-78
2020/12/13 06:37:37;;;;;;;42.10;27.97;;;6.30;99.90;;;;;;5032252;28;20279;-78
2020/12/13 06:40:06;;;;;;;40.35;28.05;;;6.20;99.90;;;;;;5031949;28;20216;-77
2020/12/13 06:42:36;;;;;;;34.03;25.97;;;6.20;99.90;;;;;;5014768;28;20212;-77
2020/12/13 06:45:04;;;;;;;36.88;27.23;;;6.20;99.90;;;;;;5015301;28;20358;-77
2020/12/13 06:47:32;;;;;;;36.15;25.55;;;6.30;99.90;;;;;;5015135;28;20200;-77
2020/12/13 06:49:59;;;;;;;36.13;27.20;;;6.30;99.90;;;;;;5014765;28;20286;-77
2020/12/13 06:52:33;;;;;;;34.03;25.37;;;6.30;99.90;;;;;;5032243;28;20280;-77
2020/12/13 06:55:01;;;;;;;32.25;24.90;;;6.30;99.90;;;;;;5032526;28;20243;-77
2020/12/13 06:57:31;;;;;;;41.45;28.95;;;6.40;99.90;;;;;;5014032;28;20309;-77
2020/12/13 06:59:57;;;;;;;33.00;23.90;;;6.40;99.90;;;;;;5032638;28;20261;-77
2020/12/13 07:02:46;;;;;;;37.75;26.85;;;6.40;99.90;;;;;;4998955;28;20207;-77
2020/12/13 07:05:14;;;;;;;32.95;23.25;;;6.40;99.90;;;;;;5032574;28;20286;-77
2020/12/13 07:07:41;;;;;;;36.00;25.03;;;6.50;99.90;;;;;;5031758;28;20204;-78
2020/12/13 07:10:08;;;;;;;34.90;25.73;;;6.40;99.90;;;;;;5014725;28;20227;-78
2020/12/13 07:12:36;;;;;;;37.33;25.80;;;6.40;99.90;;;;;;5032742;28;20246;-79
2020/12/13 07:15:15;;;;;;;32.80;24.17;;;6.40;99.90;;;;;;5032686;28;20226;-77
2020/12/13 07:17:43;;;;;;;32.93;24.33;;;6.40;99.90;;;;;;5033119;28;20592;-77
2020/12/13 07:20:11;;;;;;;36.38;24.88;;;6.40;99.90;;;;;;5052476;28;20223;-78
2020/12/13 07:22:38;;;;;;;34.17;25.07;;;6.40;99.90;;;;;;5058615;28;20179;-78
2020/12/13 07:25:04;;;;;;;32.50;22.77;;;6.40;99.90;;;;;;5057633;28;20231;-77
2020/12/13 07:27:32;;;;;;;35.20;23.85;;;6.40;99.90;;;;;;5049945;28;20180;-78
2020/12/13 07:29:59;;;;;;;39.47;26.02;;;6.50;99.90;;;;;;5056530;28;20273;-79
2020/12/13 07:32:25;;;;;;;31.85;25.08;;;6.50;99.90;;;;;;5056641;28;20219;-78
2020/12/13 07:34:53;;;;;;;34.83;26.17;;;6.50;99.90;;;;;;5048924;28;20200;-78
2020/12/13 07:37:21;;;;;;;36.10;25.77;;;6.40;99.90;;;;;;5031635;28;20219;-78
2020/12/13 07:39:49;;;;;;;33.87;24.67;;;6.40;99.90;;;;;;5031848;28;20198;-78
2020/12/13 07:42:15;;;;;;;35.90;25.37;;;6.40;99.90;;;;;;5032367;28;20204;-80
2020/12/13 07:44:43;;;;;;;35.00;26.60;;;6.40;99.90;;;;;;5031633;28;20275;-78
2020/12/13 07:47:10;;;;;;;46.60;28.77;;;6.40;99.90;;;;;;5030926;28;20541;-78
2020/12/13 07:49:36;;;;;;;31.55;23.25;;;6.40;99.90;;;;;;5031440;28;20193;-78
2020/12/13 07:52:03;;;;;;;37.73;25.63;;;6.40;99.90;;;;;;5032017;28;20192;-78
2020/12/13 07:54:32;;;;;;;38.73;26.77;;;6.40;99.90;;;;;;5032078;28;20195;-79
2020/12/13 07:57:10;;;;;;;40.00;27.97;;;6.50;99.90;;;;;;5030726;28;20224;-79
2020/12/13 07:59:37;;;;;;;33.47;25.30;;;6.40;99.90;;;;;;5033209;28;20200;-79
2020/12/13 08:02:05;;;;;;;34.22;24.98;;;6.40;99.90;;;;;;5017318;28;20311;-81
2020/12/13 08:04:34;;;;;;;39.80;27.53;;;6.40;99.90;;;;;;5035651;28;20200;-80
2020/12/13 08:07:02;;;;;;;37.53;25.23;;;6.50;99.90;;;;;;5035402;28;20482;-81
2020/12/13 08:09:30;;;;;;;33.95;25.33;;;6.50;99.90;;;;;;5002233;28;20302;-81
2020/12/13 08:12:00;;;;;;;35.50;25.40;;;6.50;99.90;;;;;;5037675;28;20622;-80
2020/12/13 08:14:30;;;;;;;35.50;25.23;;;6.60;99.90;;;;;;5055108;28;20212;-81
2020/12/13 08:16:58;;;;;;;35.37;25.43;;;6.60;99.90;;;;;;5052915;28;20235;-80
2020/12/13 08:19:34;;;;;;;38.40;26.38;;;6.70;99.90;;;;;;5037597;28;20259;-80
2020/12/13 08:22:03;;;;;;;36.23;26.80;;;6.70;99.90;;;;;;5035992;28;20198;-79
2020/12/13 08:24:30;;;;;;;42.15;27.00;;;6.70;99.90;;;;;;5035819;28;20208;-80
2020/12/13 08:26:57;;;;;;;42.97;27.42;;;6.60;99.90;;;;;;5033778;28;20200;-79
2020/12/13 08:29:26;;;;;;;44.63;30.55;;;6.70;99.90;;;;;;5009112;28;20265;-80
2020/12/13 08:31:54;;;;;;;38.97;28.37;;;6.70;99.90;;;;;;5042006;28;20212;-78
2020/12/13 08:34:26;;;;;;;42.30;29.17;;;6.60;99.90;;;;;;5028967;28;20242;-79
2020/12/13 08:36:54;;;;;;;49.57;30.63;;;6.70;99.90;;;;;;5018626;28;20704;-80
2020/12/13 08:39:27;;;;;;;37.37;26.10;;;6.80;99.90;;;;;;5031559;28;20333;-79
2020/12/13 08:41:54;;;;;;;41.33;28.73;;;6.80;99.90;;;;;;5051735;28;20209;-80
2020/12/13 08:44:30;;;;;;;43.67;29.45;;;6.80;99.90;;;;;;5045076;28;20236;-81
2020/12/13 08:46:58;;;;;;;51.03;33.27;;;6.70;99.90;;;;;;5034786;28;20199;-79
2020/12/13 08:49:27;;;;;;;38.37;27.17;;;6.70;99.90;;;;;;5029853;28;20204;-79
2020/12/13 08:51:53;;;;;;;43.43;30.40;;;6.70;99.90;;;;;;5012953;28;20612;-78
2020/12/13 08:54:20;;;;;;;47.85;31.40;;;6.80;99.90;;;;;;5009670;28;20212;-77
2020/12/13 08:56:52;;;;;;;41.28;30.23;;;6.80;99.90;;;;;;5029877;28;20220;-77
2020/12/13 08:59:20;;;;;;;50.50;33.67;;;6.80;99.90;;;;;;5013489;28;20204;-77
2020/12/13 09:01:57;;;;;;;68.90;40.97;;;6.80;99.90;;;;;;5030221;28;20318;-78
2020/12/13 09:04:25;;;;;;;75.68;44.88;;;6.80;99.90;;;;;;5030810;28;20215;-77
2020/12/13 09:07:03;;;;;;;60.10;36.37;;;6.90;99.90;;;;;;5128412;27;20868;-40
2020/12/13 09:09:32;;;;;;;53.87;33.80;;;6.90;99.90;;;;;;5129069;27;20309;-41
2020/12/13 09:11:59;;;;;;;57.67;31.33;;;6.90;99.90;;;;;;5128305;27;20212;-40
2020/12/13 09:14:27;;;;;;;49.10;31.10;;;7.00;99.90;;;;;;5130681;28;20197;-40
2020/12/13 09:16:55;;;;;;;52.13;31.23;;;7.10;99.90;;;;;;5125094;27;20201;-40
2020/12/13 09:19:22;;;;;;;49.58;28.65;;;7.10;99.90;;;;;;5120545;27;20297;-41
2020/12/13 09:21:51;;;;;;;51.93;35.50;;;7.20;99.90;;;;;;5121691;27;20223;-41
2020/12/13 09:24:20;;;;;;;51.27;32.07;;;7.20;99.90;;;;;;5128826;27;20673;-41
2020/12/13 09:27:04;;;;;;;44.17;31.13;;;7.20;99.90;;;;;;5128281;28;20225;-41
2020/12/13 09:29:32;;;;;;;56.65;34.13;;;7.20;99.90;;;;;;5129152;27;20569;-40
2020/12/13 09:31:59;;;;;;;49.87;28.73;;;7.20;99.90;;;;;;5128293;27;20225;-41
2020/12/13 09:34:26;;;;;;;52.38;31.23;;;7.20;99.90;;;;;;5128597;27;20661;-41
2020/12/13 09:36:53;;;;;;;53.93;31.63;;;7.20;99.90;;;;;;5128304;27;20209;-41
2020/12/13 09:39:20;;;;;;;53.50;32.97;;;7.20;99.90;;;;;;5128426;28;20273;-41
2020/12/13 09:41:47;;;;;;;51.00;30.00;;;7.30;99.90;;;;;;5127789;27;20307;-41
2020/12/13 09:44:13;;;;;;;46.60;28.77;;;7.30;99.90;;;;;;5127354;27;20200;-41
2020/12/13 09:46:40;;;;;;;50.37;30.63;;;7.40;99.90;;;;;;5124427;27;20228;-40
2020/12/13 09:49:06;;;;;;;46.83;29.13;;;7.50;99.90;;;;;;5123986;28;20194;-39
2020/12/13 09:51:33;;;;;;;50.00;30.17;;;7.40;99.90;;;;;;5122651;28;20220;-40
2020/12/13 09:53:59;;;;;;;47.07;30.00;;;7.50;99.90;;;;;;5127916;28;20261;-40
2020/12/13 09:56:27;;;;;;;53.60;30.87;;;7.50;99.90;;;;;;5127553;28;20200;-40
2020/12/13 09:58:53;;;;;;;42.83;29.17;;;7.60;99.90;;;;;;5128275;28;20193;-41
2020/12/13 10:01:20;;;;;;;41.57;27.97;;;7.60;99.90;;;;;;5127814;27;20240;-40
2020/12/13 10:03:48;;;;;;;44.50;28.40;;;7.60;99.90;;;;;;5121351;27;20205;-41
2020/12/13 10:06:33;;;;;;;44.60;30.00;;;7.50;99.90;;;;;;5127734;27;20308;-41
2020/12/13 10:09:07;;;;;;;43.57;28.40;;;7.60;99.90;;;;;;5122391;28;20201;-41
2020/12/13 10:11:36;;;;;;;47.43;30.33;;;7.60;99.90;;;;;;5127562;27;20244;-41
2020/12/13 10:14:02;;;;;;;49.75;28.55;;;7.60;99.90;;;;;;5128263;27;20600;-41
2020/12/13 10:16:29;;;;;;;48.23;27.37;;;7.70;99.90;;;;;;5125092;27;20252;-42
2020/12/13 10:18:56;;;;;;;44.10;28.13;;;7.70;99.90;;;;;;5113755;28;20613;-41
2020/12/13 10:21:23;;;;;;;43.70;28.03;;;7.80;99.90;;;;;;5112852;28;20220;-42
2020/12/13 10:23:51;;;;;;;43.47;27.13;;;7.90;99.90;;;;;;5113896;28;20278;-42
2020/12/13 10:26:17;;;;;;;45.70;27.40;;;7.90;99.90;;;;;;5113775;28;20285;-42
2020/12/13 10:28:45;;;;;;;40.53;26.60;;;8.00;99.90;;;;;;5110918;27;20255;-41
2020/12/13 10:31:13;;;;;;;38.00;24.50;;;8.00;99.90;;;;;;5113111;28;20213;-42
2020/12/13 10:33:40;;;;;;;44.08;27.77;;;8.20;99.90;;;;;;5112601;28;20210;-42
2020/12/13 10:36:08;;;;;;;38.30;27.53;;;8.30;99.90;;;;;;5113643;27;20194;-42
2020/12/13 10:38:35;;;;;;;39.33;26.60;;;8.40;99.90;;;;;;5113319;28;20223;-41
2020/12/13 10:41:05;;;;;;;36.17;25.40;;;8.50;99.90;;;;;;5113162;28;20278;-42
2020/12/13 10:43:31;;;;;;;40.27;25.93;;;8.70;99.90;;;;;;5113610;28;20193;-42
2020/12/13 10:45:59;;;;;;;40.03;26.13;;;8.70;99.90;;;;;;5114061;28;20251;-42
2020/12/13 10:48:25;;;;;;;43.33;27.47;;;8.80;99.90;;;;;;5112200;28;20191;-42
2020/12/13 10:50:52;;;;;;;39.00;24.63;;;8.80;99.90;;;;;;5112107;28;20768;-42
2020/12/13 10:53:18;;;;;;;42.80;26.43;;;8.80;99.90;;;;;;5114402;28;20254;-42
2020/12/13 10:55:45;;;;;;;42.60;25.57;;;8.90;99.90;;;;;;5115457;28;20213;-41
2020/12/13 10:58:11;;;;;;;42.53;25.52;;;8.80;99.90;;;;;;5112755;28;20659;-41
2020/12/13 11:00:38;;;;;;;39.95;25.75;;;8.70;99.90;;;;;;5103682;28;20241;-42
2020/12/13 11:03:05;;;;;;;41.73;27.03;;;8.70;99.90;;;;;;5109125;28;20209;-41
2020/12/13 11:05:32;;;;;;;40.27;25.77;;;8.60;99.90;;;;;;5112408;28;20217;-41
2020/12/13 11:07:58;;;;;;;40.60;28.17;;;8.50;99.90;;;;;;5113189;28;20280;-40
2020/12/13 11:10:25;;;;;;;37.75;25.85;;;8.60;99.90;;;;;;5112341;28;20276;-41
2020/12/13 11:12:52;;;;;;;40.67;25.40;;;8.60;99.90;;;;;;5113128;28;20193;-41
2020/12/13 11:15:18;;;;;;;37.50;25.47;;;8.70;99.90;;;;;;5112984;28;20192;-41
2020/12/13 11:17:45;;;;;;;37.85;27.20;;;8.70;99.90;;;;;;5112641;28;20203;-40
2020/12/13 11:20:12;;;;;;;41.17;25.97;;;8.90;99.90;;;;;;5109317;28;20609;-43
2020/12/13 11:22:39;;;;;;;39.78;27.38;;;8.80;99.90;;;;;;5112677;28;20275;-40
2020/12/13 11:25:06;;;;;;;47.43;28.60;;;8.80;99.90;;;;;;5112783;28;20210;-42
2020/12/13 11:27:32;;;;;;;42.92;28.90;;;8.80;99.90;;;;;;5112158;28;20276;-41
2020/12/13 11:29:59;;;;;;;35.35;24.63;;;8.80;99.90;;;;;;5111415;28;20197;-40
2020/12/13 11:32:27;;;;;;;40.90;25.67;;;8.80;99.90;;;;;;5104797;28;21097;-41
2020/12/13 11:34:53;;;;;;;43.50;29.08;;;8.90;99.90;;;;;;5104351;28;20286;-41
2020/12/13 11:37:21;;;;;;;37.88;24.85;;;9.20;99.90;;;;;;5101354;28;20233;-41
2020/12/13 11:39:48;;;;;;;42.00;26.37;;;9.30;99.90;;;;;;5100793;28;20222;-41
2020/12/13 11:42:16;;;;;;;45.73;27.30;;;9.30;99.90;;;;;;5105244;28;20704;-42
2020/12/13 11:44:43;;;;;;;36.03;25.73;;;9.10;99.90;;;;;;5108601;28;20197;-41
2020/12/13 11:47:10;;;;;;;40.10;26.77;;;9.10;99.90;;;;;;5112156;28;20304;-41
2020/12/13 11:49:37;;;;;;;46.73;28.00;;;9.10;99.90;;;;;;5099340;28;20189;-41
2020/12/13 11:52:03;;;;;;;38.28;26.02;;;9.10;99.90;;;;;;5108163;27;20225;-42
2020/12/13 11:54:31;;;;;;;38.72;25.02;;;9.20;99.90;;;;;;5115096;27;20195;-42
2020/12/13 11:56:58;;;;;;;41.38;25.13;;;9.20;99.90;;;;;;5111757;28;20233;-41
2020/12/13 11:59:25;;;;;;;37.25;23.58;;;9.30;99.90;;;;;;5112260;28;20189;-41
2020/12/13 12:01:52;;;;;;;42.93;25.80;;;9.50;99.90;;;;;;5112035;28;20650;-41
2020/12/13 12:04:18;;;;;;;38.83;27.40;;;9.50;99.90;;;;;;5112259;28;20259;-42
2020/12/13 12:06:45;;;;;;;31.23;21.70;;;9.50;99.90;;;;;;5111932;28;20640;-42
2020/12/13 12:09:12;;;;;;;31.70;21.67;;;9.40;99.90;;;;;;5112015;28;20201;-41
2020/12/13 12:11:40;;;;;;;32.80;21.25;;;9.30;99.90;;;;;;5111919;28;20310;-42
2020/12/13 12:14:10;;;;;;;34.23;21.00;;;9.40;99.90;;;;;;5112085;28;20197;-41
2020/12/13 12:16:37;;;;;;;34.27;22.50;;;9.40;99.90;;;;;;5112660;28;21416;-41
2020/12/13 12:19:04;;;;;;;32.28;20.42;;;9.40;99.90;;;;;;5113239;27;20224;-41
2020/12/13 12:21:31;;;;;;;30.73;21.20;;;9.40;99.90;;;;;;5115896;27;20248;-42
2020/12/13 12:23:58;;;;;;;39.13;24.33;;;9.40;99.90;;;;;;5101030;28;20196;-42
2020/12/13 12:26:30;;;;;;;39.83;25.80;;;9.40;99.90;;;;;;5102288;28;20603;-41
2020/12/13 12:28:58;;;;;;;38.05;23.63;;;9.30;99.90;;;;;;5099245;28;20283;-41
2020/12/13 12:31:25;;;;;;;32.53;22.80;;;9.30;99.90;;;;;;5108678;28;20216;-41
2020/12/13 12:33:52;;;;;;;37.93;25.10;;;9.40;99.90;;;;;;5108591;28;20572;-42
2020/12/13 12:36:20;;;;;;;39.58;25.30;;;9.40;99.90;;;;;;5091165;28;20262;-42
2020/12/13 12:38:47;;;;;;;37.03;26.30;;;9.40;99.90;;;;;;5091043;28;20193;-42
2020/12/13 12:41:15;;;;;;;35.47;24.42;;;9.20;99.90;;;;;;5091330;28;20266;-41
2020/12/13 12:43:43;;;;;;;38.67;27.23;;;9.20;99.90;;;;;;5091414;28;20305;-41
2020/12/13 12:46:10;;;;;;;44.77;25.87;;;9.20;99.90;;;;;;5090820;28;20210;-41
2020/12/13 12:48:37;;;;;;;38.97;25.33;;;9.10;99.90;;;;;;5090915;28;20198;-41